Delta, Colorado
Current Conditions -  °F | °C
As of 2:35 AM on Tuesday 21 Oct 2014 (Local Time) from KAJZ Reporting Station
Scattered Clouds Scattered Clouds  
Wind Chill: 53°   Ceiling: Unl
Heat Index: 53°   Visibility: 10mi
Dew Point: 40°   Wind: 0mph
Humidity: 62%   Direction: NA
Pressure: 30.1"   Gusts: NA
Location:  38.74°N, 108.07°W
Report Text: KAJZ 210835Z AUTO 00000KT 10SM SCT120 12/05 A3010 RMK AO2 T01170047
Loading
Personal Weather Stations






























Interactive Weather Map
Tropical Storm Tracking
New forecast layout! Learn more

10-Day Weather Forecast

Advertisements
Track Severe Weather on mobile